sensor_id;sensor_type;location;lat;lon;timestamp;P1;durP1;ratioP1;P2;durP2;ratioP2
934;SDS011;454;53.254;10.400;2023-08-30T04:02:32;3.10;;;2.97;;
934;SDS011;454;53.254;10.400;2023-08-30T04:04:59;2.87;;;2.67;;
934;SDS011;454;53.254;10.400;2023-08-30T04:07:26;3.17;;;2.83;;
934;SDS011;454;53.254;10.400;2023-08-30T04:09:52;2.30;;;2.20;;
934;SDS011;454;53.254;10.400;2023-08-30T04:12:19;2.20;;;2.10;;
934;SDS011;454;53.254;10.400;2023-08-30T04:14:46;3.60;;;3.40;;
934;SDS011;454;53.254;10.400;2023-08-30T04:17:13;3.50;;;3.35;;
934;SDS011;454;53.254;10.400;2023-08-30T04:19:41;3.50;;;3.30;;
934;SDS011;454;53.254;10.400;2023-08-30T04:22:08;2.60;;;2.50;;
934;SDS011;454;53.254;10.400;2023-08-30T04:24:35;3.30;;;3.10;;
934;SDS011;454;53.254;10.400;2023-08-30T04:27:02;3.25;;;3.05;;
934;SDS011;454;53.254;10.400;2023-08-30T04:29:29;3.47;;;3.27;;
934;SDS011;454;53.254;10.400;2023-08-30T04:31:55;3.63;;;3.33;;
934;SDS011;454;53.254;10.400;2023-08-30T04:34:22;3.60;;;3.40;;
934;SDS011;454;53.254;10.400;2023-08-30T04:36:50;3.27;;;3.07;;
934;SDS011;454;53.254;10.400;2023-08-30T04:39:17;3.70;;;3.40;;
934;SDS011;454;53.254;10.400;2023-08-30T04:41:44;2.70;;;2.60;;
934;SDS011;454;53.254;10.400;2023-08-30T04:44:11;3.00;;;2.80;;
934;SDS011;454;53.254;10.400;2023-08-30T04:46:37;3.57;;;3.40;;
934;SDS011;454;53.254;10.400;2023-08-30T04:49:04;2.90;;;2.80;;
934;SDS011;454;53.254;10.400;2023-08-30T04:51:31;3.43;;;3.13;;
934;SDS011;454;53.254;10.400;2023-08-30T04:53:59;3.03;;;2.83;;
934;SDS011;454;53.254;10.400;2023-08-30T04:56:25;4.30;;;3.90;;
934;SDS011;454;53.254;10.400;2023-08-30T04:58:52;3.43;;;3.23;;
934;SDS011;454;53.254;10.400;2023-08-30T05:01:19;3.20;;;2.90;;
934;SDS011;454;53.254;10.400;2023-08-30T05:03:46;2.70;;;2.60;;
934;SDS011;454;53.254;10.400;2023-08-30T05:06:13;3.00;;;2.90;;
934;SDS011;454;53.254;10.400;2023-08-30T05:08:41;3.53;;;3.40;;
934;SDS011;454;53.254;10.400;2023-08-30T05:11:09;3.63;;;3.43;;
934;SDS011;454;53.254;10.400;2023-08-30T05:13:36;3.07;;;2.97;;
934;SDS011;454;53.254;10.400;2023-08-30T05:16:02;2.80;;;2.70;;
934;SDS011;454;53.254;10.400;2023-08-30T05:18:29;2.97;;;2.83;;
934;SDS011;454;53.254;10.400;2023-08-30T05:20:56;3.57;;;3.37;;
934;SDS011;454;53.254;10.400;2023-08-30T05:23:23;3.70;;;3.50;;
934;SDS011;454;53.254;10.400;2023-08-30T05:25:49;3.00;;;2.90;;
934;SDS011;454;53.254;10.400;2023-08-30T05:28:17;2.97;;;2.80;;
934;SDS011;454;53.254;10.400;2023-08-30T05:30:44;3.80;;;3.30;;
934;SDS011;454;53.254;10.400;2023-08-30T05:33:11;4.13;;;3.83;;
934;SDS011;454;53.254;10.400;2023-08-30T05:35:37;3.50;;;3.30;;
934;SDS011;454;53.254;10.400;2023-08-30T05:38:04;3.70;;;3.50;;
934;SDS011;454;53.254;10.400;2023-08-30T05:40:31;4.10;;;3.80;;
934;SDS011;454;53.254;10.400;2023-08-30T05:42:58;3.67;;;3.50;;
934;SDS011;454;53.254;10.400;2023-08-30T05:45:26;3.67;;;3.20;;
934;SDS011;454;53.254;10.400;2023-08-30T05:47:52;3.67;;;3.33;;
934;SDS011;454;53.254;10.400;2023-08-30T05:50:19;3.50;;;3.23;;
934;SDS011;454;53.254;10.400;2023-08-30T05:52:46;3.10;;;2.90;;
934;SDS011;454;53.254;10.400;2023-08-30T05:55:13;4.47;;;4.00;;
934;SDS011;454;53.254;10.400;2023-08-30T05:57:39;4.17;;;3.77;;
934;SDS011;454;53.254;10.400;2023-08-30T06:00:06;4.40;;;3.90;;
934;SDS011;454;53.254;10.400;2023-08-30T06:02:35;4.70;;;4.27;;
934;SDS011;454;53.254;10.400;2023-08-30T06:05:02;4.40;;;4.10;;
934;SDS011;454;53.254;10.400;2023-08-30T06:07:29;3.87;;;3.60;;
934;SDS011;454;53.254;10.400;2023-08-30T06:09:56;3.60;;;3.40;;
934;SDS011;454;53.254;10.400;2023-08-30T06:12:23;3.77;;;3.50;;
934;SDS011;454;53.254;10.400;2023-08-30T06:14:50;4.53;;;4.23;;
934;SDS011;454;53.254;10.400;2023-08-30T06:17:18;3.97;;;3.67;;
934;SDS011;454;53.254;10.400;2023-08-30T06:19:46;4.17;;;3.80;;
934;SDS011;454;53.254;10.400;2023-08-30T06:22:13;4.23;;;3.93;;
934;SDS011;454;53.254;10.400;2023-08-30T06:24:40;3.97;;;3.77;;
934;SDS011;454;53.254;10.400;2023-08-30T06:27:07;4.13;;;3.73;;
934;SDS011;454;53.254;10.400;2023-08-30T06:29:34;4.43;;;4.00;;
934;SDS011;454;53.254;10.400;2023-08-30T06:32:01;3.50;;;3.30;;
934;SDS011;454;53.254;10.400;2023-08-30T06:34:28;4.17;;;3.90;;
934;SDS011;454;53.254;10.400;2023-08-30T06:36:56;4.00;;;3.70;;
934;SDS011;454;53.254;10.400;2023-08-30T06:39:23;3.70;;;3.50;;
934;SDS011;454;53.254;10.400;2023-08-30T06:41:50;3.93;;;3.63;;
934;SDS011;454;53.254;10.400;2023-08-30T06:44:17;4.23;;;3.80;;
934;SDS011;454;53.254;10.400;2023-08-30T06:46:43;3.47;;;3.27;;
934;SDS011;454;53.254;10.400;2023-08-30T06:49:10;4.10;;;3.63;;
934;SDS011;454;53.254;10.400;2023-08-30T06:51:37;3.90;;;3.60;;
934;SDS011;454;53.254;10.400;2023-08-30T06:54:05;3.90;;;3.60;;
934;SDS011;454;53.254;10.400;2023-08-30T06:56:31;4.33;;;3.20;;
934;SDS011;454;53.254;10.400;2023-08-30T06:58:58;4.43;;;4.03;;
934;SDS011;454;53.254;10.400;2023-08-30T07:01:25;3.37;;;3.27;;
934;SDS011;454;53.254;10.400;2023-08-30T07:03:51;3.80;;;3.60;;
934;SDS011;454;53.254;10.400;2023-08-30T07:06:18;3.33;;;3.07;;
934;SDS011;454;53.254;10.400;2023-08-30T07:08:45;3.23;;;3.10;;
934;SDS011;454;53.254;10.400;2023-08-30T07:11:13;3.10;;;3.00;;
934;SDS011;454;53.254;10.400;2023-08-30T07:13:39;3.17;;;3.07;;
934;SDS011;454;53.254;10.400;2023-08-30T07:16:06;3.60;;;3.40;;
934;SDS011;454;53.254;10.400;2023-08-30T07:18:33;3.90;;;3.70;;
934;SDS011;454;53.254;10.400;2023-08-30T07:21:00;3.53;;;3.43;;
934;SDS011;454;53.254;10.400;2023-08-30T07:23:27;3.67;;;3.47;;
934;SDS011;454;53.254;10.400;2023-08-30T07:25:53;3.87;;;3.67;;
934;SDS011;454;53.254;10.400;2023-08-30T07:28:21;3.07;;;2.97;;
934;SDS011;454;53.254;10.400;2023-08-30T07:30:48;3.23;;;3.10;;
934;SDS011;454;53.254;10.400;2023-08-30T07:33:15;3.13;;;3.03;;
934;SDS011;454;53.254;10.400;2023-08-30T07:35:41;2.87;;;2.77;;
934;SDS011;454;53.254;10.400;2023-08-30T07:38:08;3.00;;;2.90;;
934;SDS011;454;53.254;10.400;2023-08-30T07:40:35;2.83;;;2.73;;
934;SDS011;454;53.254;10.400;2023-08-30T07:43:01;3.70;;;3.40;;
934;SDS011;454;53.254;10.400;2023-08-30T07:45:30;3.60;;;3.50;;
934;SDS011;454;53.254;10.400;2023-08-30T07:47:56;4.30;;;3.90;;
934;SDS011;454;53.254;10.400;2023-08-30T07:50:23;2.67;;;2.67;;
934;SDS011;454;53.254;10.400;2023-08-30T07:52:50;2.80;;;2.70;;
934;SDS011;454;53.254;10.400;2023-08-30T07:55:16;2.57;;;2.47;;
934;SDS011;454;53.254;10.400;2023-08-30T07:57:43;3.10;;;3.00;;
934;SDS011;454;53.254;10.400;2023-08-30T08:00:11;4.30;;;3.90;;
934;SDS011;454;53.254;10.400;2023-08-30T08:02:40;3.73;;;3.53;;
934;SDS011;454;53.254;10.400;2023-08-30T08:05:07;3.33;;;3.23;;
934;SDS011;454;53.254;10.400;2023-08-30T08:07:36;3.07;;;2.97;;
934;SDS011;454;53.254;10.400;2023-08-30T08:10:04;3.30;;;3.20;;
934;SDS011;454;53.254;10.400;2023-08-30T08:12:32;5.03;;;4.63;;
934;SDS011;454;53.254;10.400;2023-08-30T08:14:59;4.50;;;4.20;;
934;SDS011;454;53.254;10.400;2023-08-30T08:17:26;5.23;;;4.90;;
934;SDS011;454;53.254;10.400;2023-08-30T08:19:54;4.90;;;4.50;;
934;SDS011;454;53.254;10.400;2023-08-30T08:22:20;4.40;;;4.10;;
934;SDS011;454;53.254;10.400;2023-08-30T08:24:48;7.00;;;4.90;;
934;SDS011;454;53.254;10.400;2023-08-30T08:27:16;3.77;;;3.67;;
934;SDS011;454;53.254;10.400;2023-08-30T08:29:43;4.90;;;4.50;;
934;SDS011;454;53.254;10.400;2023-08-30T08:32:10;4.20;;;3.90;;
934;SDS011;454;53.254;10.400;2023-08-30T08:34:36;4.03;;;3.73;;
934;SDS011;454;53.254;10.400;2023-08-30T08:37:04;4.97;;;4.73;;
934;SDS011;454;53.254;10.400;2023-08-30T08:39:32;4.87;;;4.33;;
934;SDS011;454;53.254;10.400;2023-08-30T08:42:01;4.40;;;4.10;;
934;SDS011;454;53.254;10.400;2023-08-30T08:44:31;3.60;;;3.40;;
934;SDS011;454;53.254;10.400;2023-08-30T08:46:58;4.77;;;4.47;;
934;SDS011;454;53.254;10.400;2023-08-30T08:49:26;4.40;;;4.10;;
934;SDS011;454;53.254;10.400;2023-08-30T08:51:55;4.83;;;4.63;;
934;SDS011;454;53.254;10.400;2023-08-30T08:54:23;3.47;;;3.27;;
934;SDS011;454;53.254;10.400;2023-08-30T08:56:51;5.33;;;4.93;;
934;SDS011;454;53.254;10.400;2023-08-30T08:59:19;4.53;;;4.23;;
934;SDS011;454;53.254;10.400;2023-08-30T09:01:47;3.80;;;3.57;;
934;SDS011;454;53.254;10.400;2023-08-30T09:04:15;3.20;;;3.10;;
934;SDS011;454;53.254;10.400;2023-08-30T09:06:42;3.73;;;3.43;;
934;SDS011;454;53.254;10.400;2023-08-30T09:09:09;3.67;;;3.37;;
934;SDS011;454;53.254;10.400;2023-08-30T09:11:37;3.70;;;3.60;;
934;SDS011;454;53.254;10.400;2023-08-30T09:14:04;3.43;;;3.33;;
934;SDS011;454;53.254;10.400;2023-08-30T09:16:31;3.33;;;3.13;;
934;SDS011;454;53.254;10.400;2023-08-30T09:18:58;3.93;;;3.73;;
934;SDS011;454;53.254;10.400;2023-08-30T09:21:25;3.80;;;3.43;;
934;SDS011;454;53.254;10.400;2023-08-30T09:23:58;4.30;;;4.10;;
934;SDS011;454;53.254;10.400;2023-08-30T09:26:26;3.87;;;3.70;;
934;SDS011;454;53.254;10.400;2023-08-30T09:28:55;3.83;;;3.63;;
934;SDS011;454;53.254;10.400;2023-08-30T09:31:22;3.30;;;3.20;;
934;SDS011;454;53.254;10.400;2023-08-30T09:33:48;3.40;;;3.20;;
934;SDS011;454;53.254;10.400;2023-08-30T09:36:15;3.40;;;3.20;;
934;SDS011;454;53.254;10.400;2023-08-30T09:38:47;3.60;;;3.30;;
934;SDS011;454;53.254;10.400;2023-08-30T09:41:14;3.13;;;3.00;;
934;SDS011;454;53.254;10.400;2023-08-30T09:43:42;3.67;;;3.30;;
934;SDS011;454;53.254;10.400;2023-08-30T09:46:11;3.70;;;3.60;;
934;SDS011;454;53.254;10.400;2023-08-30T09:48:38;3.80;;;3.67;;
934;SDS011;454;53.254;10.400;2023-08-30T09:51:05;4.07;;;3.77;;
934;SDS011;454;53.254;10.400;2023-08-30T09:53:37;3.63;;;3.50;;
934;SDS011;454;53.254;10.400;2023-08-30T09:56:09;3.77;;;3.57;;
934;SDS011;454;53.254;10.400;2023-08-30T09:58:40;4.00;;;3.70;;
934;SDS011;454;53.254;10.400;2023-08-30T10:01:07;4.37;;;4.07;;
934;SDS011;454;53.254;10.400;2023-08-30T10:03:37;3.80;;;3.60;;
934;SDS011;454;53.254;10.400;2023-08-30T10:06:05;3.60;;;3.40;;
934;SDS011;454;53.254;10.400;2023-08-30T10:08:33;4.70;;;4.40;;
934;SDS011;454;53.254;10.400;2023-08-30T10:11:02;5.43;;;3.63;;
934;SDS011;454;53.254;10.400;2023-08-30T10:13:30;3.90;;;3.70;;
934;SDS011;454;53.254;10.400;2023-08-30T10:16:00;3.70;;;3.50;;
934;SDS011;454;53.254;10.400;2023-08-30T10:18:29;3.57;;;3.37;;
934;SDS011;454;53.254;10.400;2023-08-30T10:21:01;3.90;;;3.80;;
934;SDS011;454;53.254;10.400;2023-08-30T10:23:33;3.80;;;3.70;;
934;SDS011;454;53.254;10.400;2023-08-30T10:26:01;4.13;;;3.80;;
934;SDS011;454;53.254;10.400;2023-08-30T10:28:29;3.60;;;3.40;;
934;SDS011;454;53.254;10.400;2023-08-30T10:30:57;4.63;;;4.33;;
934;SDS011;454;53.254;10.400;2023-08-30T10:33:24;3.60;;;3.50;;
934;SDS011;454;53.254;10.400;2023-08-30T10:35:51;4.30;;;4.00;;
934;SDS011;454;53.254;10.400;2023-08-30T10:38:25;3.60;;;3.40;;
934;SDS011;454;53.254;10.400;2023-08-30T10:40:53;4.60;;;3.53;;
934;SDS011;454;53.254;10.400;2023-08-30T10:43:27;3.27;;;3.13;;
934;SDS011;454;53.254;10.400;2023-08-30T10:45:59;4.13;;;3.93;;
934;SDS011;454;53.254;10.400;2023-08-30T10:48:34;3.90;;;3.70;;
934;SDS011;454;53.254;10.400;2023-08-30T10:51:05;4.70;;;4.40;;
934;SDS011;454;53.254;10.400;2023-08-30T10:53:43;4.20;;;4.00;;
934;SDS011;454;53.254;10.400;2023-08-30T10:56:26;4.90;;;4.70;;
934;SDS011;454;53.254;10.400;2023-08-30T10:58:53;3.90;;;3.70;;
934;SDS011;454;53.254;10.400;2023-08-30T11:01:20;5.10;;;4.73;;
934;SDS011;454;53.254;10.400;2023-08-30T11:03:47;4.20;;;3.90;;
934;SDS011;454;53.254;10.400;2023-08-30T11:06:15;4.30;;;4.10;;
934;SDS011;454;53.254;10.400;2023-08-30T11:08:43;5.00;;;3.70;;
934;SDS011;454;53.254;10.400;2023-08-30T11:11:10;4.20;;;4.00;;
934;SDS011;454;53.254;10.400;2023-08-30T11:13:39;4.60;;;4.30;;
934;SDS011;454;53.254;10.400;2023-08-30T11:16:06;4.37;;;4.07;;
934;SDS011;454;53.254;10.400;2023-08-30T11:18:36;3.87;;;3.63;;
934;SDS011;454;53.254;10.400;2023-08-30T11:21:03;3.37;;;3.20;;
934;SDS011;454;53.254;10.400;2023-08-30T11:23:31;3.70;;;3.40;;
934;SDS011;454;53.254;10.400;2023-08-30T11:25:59;2.90;;;2.80;;
934;SDS011;454;53.254;10.400;2023-08-30T11:28:28;4.00;;;3.70;;
934;SDS011;454;53.254;10.400;2023-08-30T11:30:55;3.83;;;3.53;;
934;SDS011;454;53.254;10.400;2023-08-30T11:33:22;3.33;;;3.10;;
934;SDS011;454;53.254;10.400;2023-08-30T11:35:49;3.50;;;3.40;;
934;SDS011;454;53.254;10.400;2023-08-30T11:38:17;4.00;;;3.70;;
934;SDS011;454;53.254;10.400;2023-08-30T11:40:44;3.27;;;3.17;;
934;SDS011;454;53.254;10.400;2023-08-30T11:43:12;2.83;;;2.73;;
934;SDS011;454;53.254;10.400;2023-08-30T11:45:41;3.27;;;3.07;;
934;SDS011;454;53.254;10.400;2023-08-30T11:48:08;3.30;;;3.20;;
934;SDS011;454;53.254;10.400;2023-08-30T11:50:35;3.40;;;3.30;;
934;SDS011;454;53.254;10.400;2023-08-30T11:53:02;3.13;;;3.03;;
934;SDS011;454;53.254;10.400;2023-08-30T11:55:29;3.50;;;3.30;;
934;SDS011;454;53.254;10.400;2023-08-30T11:57:56;3.97;;;3.67;;
934;SDS011;454;53.254;10.400;2023-08-30T12:00:24;3.67;;;3.57;;
934;SDS011;454;53.254;10.400;2023-08-30T12:02:51;3.00;;;2.90;;
934;SDS011;454;53.254;10.400;2023-08-30T12:05:18;2.93;;;2.83;;
934;SDS011;454;53.254;10.400;2023-08-30T12:07:46;3.37;;;3.20;;
934;SDS011;454;53.254;10.400;2023-08-30T12:10:13;2.93;;;2.80;;
934;SDS011;454;53.254;10.400;2023-08-30T12:12:44;2.40;;;2.30;;
934;SDS011;454;53.254;10.400;2023-08-30T12:15:12;3.80;;;3.43;;
934;SDS011;454;53.254;10.400;2023-08-30T12:17:41;2.83;;;2.83;;
934;SDS011;454;53.254;10.400;2023-08-30T12:20:14;3.60;;;2.87;;
934;SDS011;454;53.254;10.400;2023-08-30T12:22:42;3.77;;;3.53;;
934;SDS011;454;53.254;10.400;2023-08-30T12:25:15;3.90;;;3.70;;
934;SDS011;454;53.254;10.400;2023-08-30T12:27:43;3.90;;;3.70;;
934;SDS011;454;53.254;10.400;2023-08-30T12:30:10;3.20;;;3.00;;
934;SDS011;454;53.254;10.400;2023-08-30T12:32:37;2.80;;;2.80;;
934;SDS011;454;53.254;10.400;2023-08-30T12:35:06;3.17;;;2.97;;
934;SDS011;454;53.254;10.400;2023-08-30T12:37:34;3.77;;;3.47;;
934;SDS011;454;53.254;10.400;2023-08-30T12:40:00;3.93;;;3.57;;
934;SDS011;454;53.254;10.400;2023-08-30T12:42:27;3.57;;;3.27;;
934;SDS011;454;53.254;10.400;2023-08-30T12:44:54;4.20;;;3.00;;
934;SDS011;454;53.254;10.400;2023-08-30T12:47:21;3.47;;;3.37;;
934;SDS011;454;53.254;10.400;2023-08-30T12:49:48;3.13;;;3.00;;
934;SDS011;454;53.254;10.400;2023-08-30T12:52:16;3.33;;;3.17;;
934;SDS011;454;53.254;10.400;2023-08-30T12:54:43;3.37;;;3.23;;
934;SDS011;454;53.254;10.400;2023-08-30T12:57:09;4.73;;;3.13;;
934;SDS011;454;53.254;10.400;2023-08-30T12:59:36;4.10;;;3.80;;
934;SDS011;454;53.254;10.400;2023-08-30T13:02:03;3.50;;;3.37;;
934;SDS011;454;53.254;10.400;2023-08-30T13:04:30;2.87;;;2.83;;
934;SDS011;454;53.254;10.400;2023-08-30T13:06:56;2.60;;;2.57;;
934;SDS011;454;53.254;10.400;2023-08-30T13:09:24;3.43;;;3.33;;
934;SDS011;454;53.254;10.400;2023-08-30T13:11:51;3.53;;;3.20;;
934;SDS011;454;53.254;10.400;2023-08-30T13:14:18;2.83;;;2.80;;
934;SDS011;454;53.254;10.400;2023-08-30T13:16:44;3.20;;;3.00;;
934;SDS011;454;53.254;10.400;2023-08-30T13:19:11;2.47;;;2.37;;
934;SDS011;454;53.254;10.400;2023-08-30T13:21:37;2.23;;;2.23;;
934;SDS011;454;53.254;10.400;2023-08-30T13:24:05;2.90;;;2.80;;
934;SDS011;454;53.254;10.400;2023-08-30T13:26:33;3.17;;;3.07;;
934;SDS011;454;53.254;10.400;2023-08-30T13:29:00;3.97;;;3.70;;
934;SDS011;454;53.254;10.400;2023-08-30T13:31:27;5.37;;;3.87;;
934;SDS011;454;53.254;10.400;2023-08-30T13:33:53;3.90;;;3.70;;
934;SDS011;454;53.254;10.400;2023-08-30T13:36:20;3.43;;;3.33;;
934;SDS011;454;53.254;10.400;2023-08-30T13:38:47;4.00;;;3.80;;
934;SDS011;454;53.254;10.400;2023-08-30T13:41:13;4.17;;;3.97;;
934;SDS011;454;53.254;10.400;2023-08-30T13:43:41;4.80;;;4.07;;
934;SDS011;454;53.254;10.400;2023-08-30T13:46:08;4.33;;;4.03;;
934;SDS011;454;53.254;10.400;2023-08-30T13:48:35;2.90;;;2.80;;
934;SDS011;454;53.254;10.400;2023-08-30T13:51:02;2.90;;;2.80;;
934;SDS011;454;53.254;10.400;2023-08-30T13:53:29;3.67;;;3.47;;
934;SDS011;454;53.254;10.400;2023-08-30T13:55:55;1.93;;;1.90;;
934;SDS011;454;53.254;10.400;2023-08-30T13:58:22;3.20;;;3.10;;
934;SDS011;454;53.254;10.400;2023-08-30T14:00:50;3.43;;;2.93;;
934;SDS011;454;53.254;10.400;2023-08-30T14:03:17;3.40;;;3.30;;
934;SDS011;454;53.254;10.400;2023-08-30T14:05:44;3.50;;;3.40;;
934;SDS011;454;53.254;10.400;2023-08-30T14:08:10;2.97;;;2.87;;
934;SDS011;454;53.254;10.400;2023-08-30T14:10:37;3.37;;;3.27;;
934;SDS011;454;53.254;10.400;2023-08-30T14:13:04;3.17;;;3.07;;
934;SDS011;454;53.254;10.400;2023-08-30T14:15:31;3.30;;;3.10;;
934;SDS011;454;53.254;10.400;2023-08-30T14:17:59;3.03;;;2.93;;
934;SDS011;454;53.254;10.400;2023-08-30T14:20:27;3.37;;;3.10;;
934;SDS011;454;53.254;10.400;2023-08-30T14:22:54;3.73;;;3.50;;
934;SDS011;454;53.254;10.400;2023-08-30T14:25:21;3.17;;;3.03;;
934;SDS011;454;53.254;10.400;2023-08-30T14:27:47;3.37;;;3.27;;
934;SDS011;454;53.254;10.400;2023-08-30T14:30:14;2.50;;;2.50;;
934;SDS011;454;53.254;10.400;2023-08-30T14:32:41;3.13;;;2.97;;
934;SDS011;454;53.254;10.400;2023-08-30T14:35:09;3.60;;;3.40;;
934;SDS011;454;53.254;10.400;2023-08-30T14:37:37;2.60;;;2.50;;
934;SDS011;454;53.254;10.400;2023-08-30T14:40:05;3.30;;;3.20;;
934;SDS011;454;53.254;10.400;2023-08-30T14:42:32;3.20;;;3.00;;
934;SDS011;454;53.254;10.400;2023-08-30T14:44:59;2.30;;;2.30;;
934;SDS011;454;53.254;10.400;2023-08-30T14:47:28;3.00;;;2.70;;
934;SDS011;454;53.254;10.400;2023-08-30T14:49:56;2.70;;;2.60;;
934;SDS011;454;53.254;10.400;2023-08-30T14:52:24;3.17;;;3.07;;
934;SDS011;454;53.254;10.400;2023-08-30T14:54:50;2.60;;;2.60;;
934;SDS011;454;53.254;10.400;2023-08-30T14:57:17;3.13;;;2.93;;
934;SDS011;454;53.254;10.400;2023-08-30T14:59:44;2.90;;;2.70;;
934;SDS011;454;53.254;10.400;2023-08-30T15:02:10;2.70;;;2.50;;
934;SDS011;454;53.254;10.400;2023-08-30T15:04:37;5.93;;;3.07;;
934;SDS011;454;53.254;10.400;2023-08-30T15:07:04;3.23;;;3.13;;
934;SDS011;454;53.254;10.400;2023-08-30T15:09:32;3.87;;;3.70;;
934;SDS011;454;53.254;10.400;2023-08-30T15:11:58;2.87;;;2.67;;
934;SDS011;454;53.254;10.400;2023-08-30T15:14:25;3.40;;;3.20;;
934;SDS011;454;53.254;10.400;2023-08-30T15:16:52;3.30;;;3.00;;
934;SDS011;454;53.254;10.400;2023-08-30T15:19:19;3.13;;;3.03;;
934;SDS011;454;53.254;10.400;2023-08-30T15:21:45;2.97;;;2.77;;
934;SDS011;454;53.254;10.400;2023-08-30T15:24:12;3.47;;;3.37;;
934;SDS011;454;53.254;10.400;2023-08-30T15:26:42;3.17;;;3.07;;
934;SDS011;454;53.254;10.400;2023-08-30T15:29:09;3.73;;;3.50;;
934;SDS011;454;53.254;10.400;2023-08-30T15:31:36;3.13;;;2.93;;
934;SDS011;454;53.254;10.400;2023-08-30T15:34:03;3.50;;;3.33;;
934;SDS011;454;53.254;10.400;2023-08-30T15:36:29;3.50;;;3.30;;
934;SDS011;454;53.254;10.400;2023-08-30T15:38:56;3.63;;;3.33;;
934;SDS011;454;53.254;10.400;2023-08-30T15:41:23;3.47;;;3.23;;
934;SDS011;454;53.254;10.400;2023-08-30T15:43:51;3.27;;;3.07;;
934;SDS011;454;53.254;10.400;2023-08-30T15:46:18;3.07;;;2.97;;
934;SDS011;454;53.254;10.400;2023-08-30T15:48:46;4.40;;;4.10;;
934;SDS011;454;53.254;10.400;2023-08-30T15:51:13;3.63;;;3.50;;
934;SDS011;454;53.254;10.400;2023-08-30T15:53:39;3.40;;;3.20;;
934;SDS011;454;53.254;10.400;2023-08-30T15:56:06;3.37;;;3.03;;
934;SDS011;454;53.254;10.400;2023-08-30T15:58:33;14.60;;;3.40;;
934;SDS011;454;53.254;10.400;2023-08-30T16:01:03;3.27;;;3.17;;
934;SDS011;454;53.254;10.400;2023-08-30T16:03:30;3.60;;;3.40;;
934;SDS011;454;53.254;10.400;2023-08-30T16:05:59;4.00;;;3.80;;
934;SDS011;454;53.254;10.400;2023-08-30T16:08:26;3.47;;;3.37;;
934;SDS011;454;53.254;10.400;2023-08-30T16:10:53;3.53;;;3.43;;
934;SDS011;454;53.254;10.400;2023-08-30T16:13:21;4.03;;;3.83;;
934;SDS011;454;53.254;10.400;2023-08-30T16:15:47;3.57;;;3.37;;
934;SDS011;454;53.254;10.400;2023-08-30T16:18:15;4.30;;;4.10;;
934;SDS011;454;53.254;10.400;2023-08-30T16:20:42;3.70;;;3.60;;
934;SDS011;454;53.254;10.400;2023-08-30T16:23:09;4.00;;;3.73;;
934;SDS011;454;53.254;10.400;2023-08-30T16:25:36;4.13;;;3.93;;
934;SDS011;454;53.254;10.400;2023-08-30T16:28:03;4.03;;;3.73;;
934;SDS011;454;53.254;10.400;2023-08-30T16:30:32;5.03;;;4.63;;
934;SDS011;454;53.254;10.400;2023-08-30T16:33:00;5.70;;;5.30;;
934;SDS011;454;53.254;10.400;2023-08-30T16:35:28;6.37;;;5.97;;
934;SDS011;454;53.254;10.400;2023-08-30T16:37:55;5.67;;;5.30;;
934;SDS011;454;53.254;10.400;2023-08-30T16:40:21;5.63;;;5.33;;
934;SDS011;454;53.254;10.400;2023-08-30T16:42:48;5.40;;;5.00;;
934;SDS011;454;53.254;10.400;2023-08-30T16:45:15;7.10;;;6.43;;
934;SDS011;454;53.254;10.400;2023-08-30T16:47:42;6.87;;;6.27;;
934;SDS011;454;53.254;10.400;2023-08-30T16:50:09;6.47;;;5.97;;
934;SDS011;454;53.254;10.400;2023-08-30T16:52:38;5.90;;;5.40;;
934;SDS011;454;53.254;10.400;2023-08-30T16:55:05;6.23;;;5.73;;
934;SDS011;454;53.254;10.400;2023-08-30T16:57:32;7.77;;;6.73;;
934;SDS011;454;53.254;10.400;2023-08-30T16:59:59;8.57;;;7.67;;
934;SDS011;454;53.254;10.400;2023-08-30T17:02:25;8.73;;;7.90;;
934;SDS011;454;53.254;10.400;2023-08-30T17:04:52;8.60;;;7.80;;
934;SDS011;454;53.254;10.400;2023-08-30T17:07:19;8.80;;;7.93;;
934;SDS011;454;53.254;10.400;2023-08-30T17:09:47;9.90;;;8.83;;
934;SDS011;454;53.254;10.400;2023-08-30T17:12:13;9.90;;;8.00;;
934;SDS011;454;53.254;10.400;2023-08-30T17:14:40;8.70;;;7.90;;
934;SDS011;454;53.254;10.400;2023-08-30T17:17:07;9.00;;;7.27;;
934;SDS011;454;53.254;10.400;2023-08-30T17:19:34;8.10;;;7.40;;
934;SDS011;454;53.254;10.400;2023-08-30T17:22:00;8.97;;;7.77;;
934;SDS011;454;53.254;10.400;2023-08-30T17:24:28;9.27;;;7.30;;
934;SDS011;454;53.254;10.400;2023-08-30T17:26:58;8.87;;;8.07;;
934;SDS011;454;53.254;10.400;2023-08-30T17:29:28;9.90;;;8.90;;
934;SDS011;454;53.254;10.400;2023-08-30T17:31:54;7.47;;;6.37;;
934;SDS011;454;53.254;10.400;2023-08-30T17:34:21;9.30;;;8.47;;
934;SDS011;454;53.254;10.400;2023-08-30T17:36:48;8.37;;;7.47;;
934;SDS011;454;53.254;10.400;2023-08-30T17:39:18;8.27;;;7.47;;
934;SDS011;454;53.254;10.400;2023-08-30T17:41:45;9.33;;;7.90;;
934;SDS011;454;53.254;10.400;2023-08-30T17:44:13;7.93;;;7.23;;
934;SDS011;454;53.254;10.400;2023-08-30T17:46:40;7.20;;;6.70;;
934;SDS011;454;53.254;10.400;2023-08-30T17:49:07;10.03;;;7.27;;
934;SDS011;454;53.254;10.400;2023-08-30T17:51:35;8.43;;;7.60;;
934;SDS011;454;53.254;10.400;2023-08-30T17:54:01;8.00;;;7.20;;
934;SDS011;454;53.254;10.400;2023-08-30T17:56:28;9.30;;;8.17;;
934;SDS011;454;53.254;10.400;2023-08-30T17:58:55;7.40;;;6.60;;
934;SDS011;454;53.254;10.400;2023-08-30T18:01:23;7.63;;;6.80;;
934;SDS011;454;53.254;10.400;2023-08-30T18:03:52;8.00;;;7.20;;
934;SDS011;454;53.254;10.400;2023-08-30T18:06:19;7.50;;;6.73;;
934;SDS011;454;53.254;10.400;2023-08-30T18:08:46;8.37;;;7.53;;
934;SDS011;454;53.254;10.400;2023-08-30T18:11:15;9.53;;;7.50;;
934;SDS011;454;53.254;10.400;2023-08-30T18:13:44;9.23;;;8.23;;
934;SDS011;454;53.254;10.400;2023-08-30T18:16:11;8.10;;;7.40;;
934;SDS011;454;53.254;10.400;2023-08-30T18:18:41;7.57;;;6.97;;
934;SDS011;454;53.254;10.400;2023-08-30T18:21:08;8.93;;;8.03;;
934;SDS011;454;53.254;10.400;2023-08-30T18:23:39;8.23;;;7.47;;
934;SDS011;454;53.254;10.400;2023-08-30T18:26:07;8.93;;;8.13;;
934;SDS011;454;53.254;10.400;2023-08-30T18:28:34;8.93;;;7.93;;
934;SDS011;454;53.254;10.400;2023-08-30T18:31:00;9.50;;;8.57;;
934;SDS011;454;53.254;10.400;2023-08-30T18:33:28;8.90;;;7.77;;
934;SDS011;454;53.254;10.400;2023-08-30T18:35:56;9.17;;;8.30;;
934;SDS011;454;53.254;10.400;2023-08-30T18:38:23;8.50;;;7.70;;
934;SDS011;454;53.254;10.400;2023-08-30T18:40:50;9.73;;;8.20;;
934;SDS011;454;53.254;10.400;2023-08-30T18:43:17;9.50;;;8.40;;
934;SDS011;454;53.254;10.400;2023-08-30T18:45:44;9.43;;;8.53;;
934;SDS011;454;53.254;10.400;2023-08-30T18:48:11;8.30;;;7.50;;
934;SDS011;454;53.254;10.400;2023-08-30T18:50:39;9.43;;;8.37;;
934;SDS011;454;53.254;10.400;2023-08-30T18:53:07;10.67;;;9.20;;
934;SDS011;454;53.254;10.400;2023-08-30T18:55:36;10.17;;;8.60;;
934;SDS011;454;53.254;10.400;2023-08-30T18:58:03;10.57;;;9.53;;
934;SDS011;454;53.254;10.400;2023-08-30T19:00:30;11.60;;;9.43;;
934;SDS011;454;53.254;10.400;2023-08-30T19:02:57;9.70;;;8.67;;
934;SDS011;454;53.254;10.400;2023-08-30T19:05:24;12.97;;;10.33;;
934;SDS011;454;53.254;10.400;2023-08-30T19:07:52;10.10;;;9.10;;
934;SDS011;454;53.254;10.400;2023-08-30T19:10:20;10.77;;;9.07;;
934;SDS011;454;53.254;10.400;2023-08-30T19:12:46;14.07;;;10.80;;
934;SDS011;454;53.254;10.400;2023-08-30T19:15:13;11.70;;;9.90;;
934;SDS011;454;53.254;10.400;2023-08-30T19:17:40;12.53;;;10.70;;
934;SDS011;454;53.254;10.400;2023-08-30T19:20:09;13.40;;;10.90;;
934;SDS011;454;53.254;10.400;2023-08-30T19:22:36;15.63;;;10.00;;
934;SDS011;454;53.254;10.400;2023-08-30T19:25:03;12.03;;;9.77;;
934;SDS011;454;53.254;10.400;2023-08-30T19:27:32;12.63;;;9.97;;
934;SDS011;454;53.254;10.400;2023-08-30T19:29:58;10.80;;;9.57;;
934;SDS011;454;53.254;10.400;2023-08-30T19:32:25;13.50;;;9.53;;